sensor_id;sensor_type;location;lat;lon;timestamp;pressure;altitude;pressure_sealevel;temperature;humidity
26865;BME280;40618;51.166;10.322;2024-02-04T00:00:30;97897.00;;;6.94;96.04
26865;BME280;40618;51.166;10.322;2024-02-04T00:02:55;97898.72;;;6.94;96.67
26865;BME280;40618;51.166;10.322;2024-02-04T00:05:21;97894.44;;;6.94;95.90
26865;BME280;40618;51.166;10.322;2024-02-04T00:07:48;97890.97;;;6.95;95.87
26865;BME280;40618;51.166;10.322;2024-02-04T00:10:13;97890.13;;;6.95;96.49
26865;BME280;40618;51.166;10.322;2024-02-04T00:12:41;97882.41;;;6.95;95.99
26865;BME280;40618;51.166;10.322;2024-02-04T00:15:07;97880.69;;;6.95;95.84
26865;BME280;40618;51.166;10.322;2024-02-04T00:17:33;97877.25;;;6.97;95.81
26865;BME280;40618;51.166;10.322;2024-02-04T00:20:00;97868.66;;;6.98;96.42
26865;BME280;40618;51.166;10.322;2024-02-04T00:22:27;97866.91;;;7.00;95.87
26865;BME280;40618;51.166;10.322;2024-02-04T00:24:53;97865.22;;;6.99;95.88
26865;BME280;40618;51.166;10.322;2024-02-04T00:27:19;97866.06;;;6.99;96.19
26865;BME280;40618;51.166;10.322;2024-02-04T00:29:44;97861.75;;;7.00;95.98
26865;BME280;40618;51.166;10.322;2024-02-04T00:32:10;97864.34;;;6.98;95.83
26865;BME280;40618;51.166;10.322;2024-02-04T00:34:36;97862.66;;;6.97;96.20
26865;BME280;40618;51.166;10.322;2024-02-04T00:37:01;97854.06;;;6.98;96.51
26865;BME280;40618;51.166;10.322;2024-02-04T00:39:27;97856.63;;;6.98;96.17
26865;BME280;40618;51.166;10.322;2024-02-04T00:41:53;97859.19;;;6.98;96.63
26865;BME280;40618;51.166;10.322;2024-02-04T00:44:18;97848.91;;;6.98;95.86
26865;BME280;40618;51.166;10.322;2024-02-04T00:46:44;97852.38;;;6.97;96.39
26865;BME280;40618;51.166;10.322;2024-02-04T00:49:09;97847.22;;;6.97;96.13
26865;BME280;40618;51.166;10.322;2024-02-04T00:51:35;97846.31;;;6.98;96.16
26865;BME280;40618;51.166;10.322;2024-02-04T00:54:01;97833.44;;;6.98;96.18
26865;BME280;40618;51.166;10.322;2024-02-04T00:56:27;97823.16;;;6.98;96.02
26865;BME280;40618;51.166;10.322;2024-02-04T00:58:52;97818.88;;;6.99;96.31
26865;BME280;40618;51.166;10.322;2024-02-04T01:01:18;97823.16;;;6.98;95.92
26865;BME280;40618;51.166;10.322;2024-02-04T01:03:44;97820.56;;;6.98;96.34
26865;BME280;40618;51.166;10.322;2024-02-04T01:06:11;97822.28;;;6.99;96.59
26865;BME280;40618;51.166;10.322;2024-02-04T01:08:36;97822.28;;;6.99;96.63
26865;BME280;40618;51.166;10.322;2024-02-04T01:11:04;97821.44;;;6.99;96.39
26865;BME280;40618;51.166;10.322;2024-02-04T01:13:30;97821.44;;;7.00;96.57
26865;BME280;40618;51.166;10.322;2024-02-04T01:15:56;97803.44;;;6.99;96.48
26865;BME280;40618;51.166;10.322;2024-02-04T01:18:22;97802.56;;;6.98;95.94
26865;BME280;40618;51.166;10.322;2024-02-04T01:20:48;97832.59;;;6.99;96.28
26865;BME280;40618;51.166;10.322;2024-02-04T01:23:14;97827.44;;;6.99;96.21
26865;BME280;40618;51.166;10.322;2024-02-04T01:25:42;97812.00;;;6.99;96.55
26865;BME280;40618;51.166;10.322;2024-02-04T01:28:08;97812.00;;;6.99;96.59
26865;BME280;40618;51.166;10.322;2024-02-04T01:30:34;97834.34;;;6.97;95.90
26865;BME280;40618;51.166;10.322;2024-02-04T01:33:00;97847.22;;;6.97;96.29
26865;BME280;40618;51.166;10.322;2024-02-04T01:35:25;97843.78;;;6.95;96.38
26865;BME280;40618;51.166;10.322;2024-02-04T01:37:51;97837.78;;;6.96;96.32
26865;BME280;40618;51.166;10.322;2024-02-04T01:40:17;97842.94;;;6.96;96.17
26865;BME280;40618;51.166;10.322;2024-02-04T01:42:42;97849.78;;;6.94;96.07
26865;BME280;40618;51.166;10.322;2024-02-04T01:45:08;97854.06;;;6.97;95.96
26865;BME280;40618;51.166;10.322;2024-02-04T01:47:34;97864.34;;;6.98;96.65
26865;BME280;40618;51.166;10.322;2024-02-04T01:50:00;97849.78;;;6.97;96.25
26865;BME280;40618;51.166;10.322;2024-02-04T01:52:28;97850.66;;;6.96;96.59
26865;BME280;40618;51.166;10.322;2024-02-04T01:54:55;97842.09;;;6.92;96.74
26865;BME280;40618;51.166;10.322;2024-02-04T01:57:21;97849.84;;;6.91;96.24
26865;BME280;40618;51.166;10.322;2024-02-04T01:59:48;97827.53;;;6.88;96.52
26865;BME280;40618;51.166;10.322;2024-02-04T02:02:16;97820.69;;;6.86;96.38
26865;BME280;40618;51.166;10.322;2024-02-04T02:04:43;97842.16;;;6.83;96.25
26865;BME280;40618;51.166;10.322;2024-02-04T02:07:09;97850.78;;;6.81;96.84
26865;BME280;40618;51.166;10.322;2024-02-04T02:09:35;97849.91;;;6.82;97.06
26865;BME280;40618;51.166;10.322;2024-02-04T02:12:09;97853.31;;;6.85;96.95
26865;BME280;40618;51.166;10.322;2024-02-04T02:14:42;97855.03;;;6.88;97.09
26865;BME280;40618;51.166;10.322;2024-02-04T02:17:14;97843.81;;;6.92;96.43
26865;BME280;40618;51.166;10.322;2024-02-04T02:19:50;97851.53;;;6.93;97.03
26865;BME280;40618;51.166;10.322;2024-02-04T02:22:26;97844.63;;;6.95;96.78
26865;BME280;40618;51.166;10.322;2024-02-04T02:24:58;97843.75;;;6.98;96.94
26865;BME280;40618;51.166;10.322;2024-02-04T02:27:25;97832.63;;;6.98;96.62
26865;BME280;40618;51.166;10.322;2024-02-04T02:29:51;97833.44;;;7.00;96.63
26865;BME280;40618;51.166;10.322;2024-02-04T02:32:17;97809.41;;;7.01;97.09
26865;BME280;40618;51.166;10.322;2024-02-04T02:34:44;97816.25;;;7.02;96.39
26865;BME280;40618;51.166;10.322;2024-02-04T02:37:16;97821.41;;;7.02;96.76
26865;BME280;40618;51.166;10.322;2024-02-04T02:39:56;97805.09;;;7.04;96.67
26865;BME280;40618;51.166;10.322;2024-02-04T02:42:25;97795.66;;;7.03;96.55
26865;BME280;40618;51.166;10.322;2024-02-04T02:44:53;97785.34;;;7.03;96.80
26865;BME280;40618;51.166;10.322;2024-02-04T02:47:20;97787.06;;;7.04;96.42
26865;BME280;40618;51.166;10.322;2024-02-04T02:49:51;97793.94;;;7.05;96.88
26865;BME280;40618;51.166;10.322;2024-02-04T02:52:18;97793.03;;;7.06;96.48
26865;BME280;40618;51.166;10.322;2024-02-04T02:54:43;97786.19;;;7.07;96.84
26865;BME280;40618;51.166;10.322;2024-02-04T02:57:09;97779.28;;;7.07;96.44
26865;BME280;40618;51.166;10.322;2024-02-04T02:59:34;97786.16;;;7.08;96.22
26865;BME280;40618;51.166;10.322;2024-02-04T03:02:00;97783.56;;;7.10;96.29
26865;BME280;40618;51.166;10.322;2024-02-04T03:04:25;97777.56;;;7.09;96.40
26865;BME280;40618;51.166;10.322;2024-02-04T03:06:51;97781.84;;;7.09;96.13
26865;BME280;40618;51.166;10.322;2024-02-04T03:09:17;97781.00;;;7.10;96.13
26865;BME280;40618;51.166;10.322;2024-02-04T03:11:42;97777.56;;;7.09;96.55
26865;BME280;40618;51.166;10.322;2024-02-04T03:14:08;97785.28;;;7.11;96.51
26865;BME280;40618;51.166;10.322;2024-02-04T03:16:33;97782.69;;;7.11;96.69
26865;BME280;40618;51.166;10.322;2024-02-04T03:18:59;97786.13;;;7.11;96.12
26865;BME280;40618;51.166;10.322;2024-02-04T03:21:24;97795.50;;;7.16;96.11
26865;BME280;40618;51.166;10.322;2024-02-04T03:23:50;97779.22;;;7.15;96.81
26865;BME280;40618;51.166;10.322;2024-02-04T03:26:19;97784.34;;;7.17;96.52
26865;BME280;40618;51.166;10.322;2024-02-04T03:28:44;97787.78;;;7.16;95.90
26865;BME280;40618;51.166;10.322;2024-02-04T03:31:10;97771.53;;;7.14;96.00
26865;BME280;40618;51.166;10.322;2024-02-04T03:33:35;97782.66;;;7.14;96.65
26865;BME280;40618;51.166;10.322;2024-02-04T03:36:01;97772.34;;;7.14;95.94
26865;BME280;40618;51.166;10.322;2024-02-04T03:38:26;97754.34;;;7.14;96.82
26865;BME280;40618;51.166;10.322;2024-02-04T03:40:52;97770.59;;;7.16;96.73
26865;BME280;40618;51.166;10.322;2024-02-04T03:43:18;97776.63;;;7.17;96.28
26865;BME280;40618;51.166;10.322;2024-02-04T03:45:43;97769.75;;;7.16;96.37
26865;BME280;40618;51.166;10.322;2024-02-04T03:48:09;97780.91;;;7.16;96.27
26865;BME280;40618;51.166;10.322;2024-02-04T03:50:36;97782.63;;;7.16;96.02
26865;BME280;40618;51.166;10.322;2024-02-04T03:53:01;97780.94;;;7.15;96.07
26865;BME280;40618;51.166;10.322;2024-02-04T03:55:27;97777.53;;;7.13;95.92
26865;BME280;40618;51.166;10.322;2024-02-04T03:57:54;97758.63;;;7.14;96.50
26865;BME280;40618;51.166;10.322;2024-02-04T04:00:22;97766.34;;;7.12;96.37
26865;BME280;40618;51.166;10.322;2024-02-04T04:02:47;97742.34;;;7.11;96.32
26865;BME280;40618;51.166;10.322;2024-02-04T04:05:13;97750.94;;;7.10;96.10
26865;BME280;40618;51.166;10.322;2024-02-04T04:07:39;97745.78;;;7.10;96.57
26865;BME280;40618;51.166;10.322;2024-02-04T04:10:06;97756.97;;;7.08;96.51
26865;BME280;40618;51.166;10.322;2024-02-04T04:12:31;97755.28;;;7.07;96.72
26865;BME280;40618;51.166;10.322;2024-02-04T04:14:57;97754.44;;;7.05;96.71
26865;BME280;40618;51.166;10.322;2024-02-04T04:17:23;97761.28;;;7.06;96.63
26865;BME280;40618;51.166;10.322;2024-02-04T04:19:48;97762.16;;;7.05;96.17
26865;BME280;40618;51.166;10.322;2024-02-04T04:22:14;97761.31;;;7.04;96.81
26865;BME280;40618;51.166;10.322;2024-02-04T04:24:39;97754.44;;;7.05;96.80
26865;BME280;40618;51.166;10.322;2024-02-04T04:27:05;97751.84;;;7.05;96.98
26865;BME280;40618;51.166;10.322;2024-02-04T04:29:31;97739.84;;;7.05;96.89
26865;BME280;40618;51.166;10.322;2024-02-04T04:31:56;97733.84;;;7.03;96.73
26865;BME280;40618;51.166;10.322;2024-02-04T04:34:22;97757.00;;;7.05;96.55
26865;BME280;40618;51.166;10.322;2024-02-04T04:36:47;97743.28;;;7.04;97.21
26865;BME280;40618;51.166;10.322;2024-02-04T04:39:13;97739.84;;;7.04;96.44
26865;BME280;40618;51.166;10.322;2024-02-04T04:41:40;97741.56;;;7.03;97.04
26865;BME280;40618;51.166;10.322;2024-02-04T04:44:07;97745.00;;;7.04;96.87
26865;BME280;40618;51.166;10.322;2024-02-04T04:46:32;97733.84;;;7.03;96.64
26865;BME280;40618;51.166;10.322;2024-02-04T04:48:58;97730.44;;;7.03;96.98
26865;BME280;40618;51.166;10.322;2024-02-04T04:51:24;97724.41;;;7.02;97.12
26865;BME280;40618;51.166;10.322;2024-02-04T04:53:49;97735.59;;;7.03;96.66
26865;BME280;40618;51.166;10.322;2024-02-04T04:56:15;97738.16;;;7.03;96.40
26865;BME280;40618;51.166;10.322;2024-02-04T04:58:40;97738.16;;;7.03;97.28
26865;BME280;40618;51.166;10.322;2024-02-04T05:01:06;97738.16;;;7.03;96.72
26865;BME280;40618;51.166;10.322;2024-02-04T05:03:32;97736.44;;;7.03;97.36
26865;BME280;40618;51.166;10.322;2024-02-04T05:05:57;97751.00;;;7.04;96.93
26865;BME280;40618;51.166;10.322;2024-02-04T05:08:23;97729.53;;;7.07;97.33
26865;BME280;40618;51.166;10.322;2024-02-04T05:10:49;97743.22;;;7.09;97.06
26865;BME280;40618;51.166;10.322;2024-02-04T05:13:14;97750.94;;;7.09;96.94
26865;BME280;40618;51.166;10.322;2024-02-04T05:15:40;97724.34;;;7.10;97.25
26865;BME280;40618;51.166;10.322;2024-02-04T05:18:05;97728.59;;;7.13;96.78
26865;BME280;40618;51.166;10.322;2024-02-04T05:20:31;97715.72;;;7.13;96.85
26865;BME280;40618;51.166;10.322;2024-02-04T05:22:57;97718.31;;;7.13;96.66
26865;BME280;40618;51.166;10.322;2024-02-04T05:25:23;97720.00;;;7.14;96.83
26865;BME280;40618;51.166;10.322;2024-02-04T05:27:50;97720.00;;;7.12;96.68
26865;BME280;40618;51.166;10.322;2024-02-04T05:30:16;97726.88;;;7.11;96.60
26865;BME280;40618;51.166;10.322;2024-02-04T05:32:42;97715.75;;;7.11;96.96
26865;BME280;40618;51.166;10.322;2024-02-04T05:35:09;97720.03;;;7.10;96.92
26865;BME280;40618;51.166;10.322;2024-02-04T05:37:35;97728.66;;;7.09;97.00
26865;BME280;40618;51.166;10.322;2024-02-04T05:40:01;97710.63;;;7.08;97.25
26865;BME280;40618;51.166;10.322;2024-02-04T05:42:28;97725.22;;;7.07;97.45
26865;BME280;40618;51.166;10.322;2024-02-04T05:44:53;97713.22;;;7.06;96.86
26865;BME280;40618;51.166;10.322;2024-02-04T05:47:19;97725.25;;;7.04;96.60
26865;BME280;40618;51.166;10.322;2024-02-04T05:49:45;97724.41;;;7.05;96.52
26865;BME280;40618;51.166;10.322;2024-02-04T05:52:11;97729.53;;;7.04;97.13
26865;BME280;40618;51.166;10.322;2024-02-04T05:54:38;97717.53;;;7.04;97.63
26865;BME280;40618;51.166;10.322;2024-02-04T05:57:07;97715.81;;;7.03;97.10
26865;BME280;40618;51.166;10.322;2024-02-04T05:59:33;97715.81;;;7.03;96.91
26865;BME280;40618;51.166;10.322;2024-02-04T06:01:59;97722.72;;;7.03;96.96
26865;BME280;40618;51.166;10.322;2024-02-04T06:04:25;97737.25;;;7.04;97.00
26865;BME280;40618;51.166;10.322;2024-02-04T06:06:50;97738.13;;;7.04;97.05
26865;BME280;40618;51.166;10.322;2024-02-04T06:09:16;97740.69;;;7.06;97.74
26865;BME280;40618;51.166;10.322;2024-02-04T06:11:45;97729.53;;;7.07;97.60
26865;BME280;40618;51.166;10.322;2024-02-04T06:14:12;97724.41;;;7.05;96.91
26865;BME280;40618;51.166;10.322;2024-02-04T06:16:37;97741.53;;;7.06;96.65
26865;BME280;40618;51.166;10.322;2024-02-04T06:19:03;97736.38;;;7.08;97.71
26865;BME280;40618;51.166;10.322;2024-02-04T06:21:28;97718.31;;;7.11;97.67
26865;BME280;40618;51.166;10.322;2024-02-04T06:23:54;97722.56;;;7.12;97.48
26865;BME280;40618;51.166;10.322;2024-02-04T06:26:20;97726.00;;;7.14;96.93
26865;BME280;40618;51.166;10.322;2024-02-04T06:28:45;97732.88;;;7.15;96.65
26865;BME280;40618;51.166;10.322;2024-02-04T06:31:13;97734.53;;;7.16;97.25
26865;BME280;40618;51.166;10.322;2024-02-04T06:33:39;97726.84;;;7.18;97.35
26865;BME280;40618;51.166;10.322;2024-02-04T06:36:09;97711.38;;;7.18;96.77
26865;BME280;40618;51.166;10.322;2024-02-04T06:38:35;97718.22;;;7.19;97.21
26865;BME280;40618;51.166;10.322;2024-02-04T06:41:01;97723.34;;;7.20;97.56
26865;BME280;40618;51.166;10.322;2024-02-04T06:43:26;97725.06;;;7.20;97.30
26865;BME280;40618;51.166;10.322;2024-02-04T06:45:52;97726.81;;;7.19;96.77
26865;BME280;40618;51.166;10.322;2024-02-04T06:48:20;97725.91;;;7.20;97.53
26865;BME280;40618;51.166;10.322;2024-02-04T06:50:46;97707.03;;;7.20;96.55
26865;BME280;40618;51.166;10.322;2024-02-04T06:53:13;97723.34;;;7.22;96.97
26865;BME280;40618;51.166;10.322;2024-02-04T06:55:39;97717.31;;;7.21;96.46
26865;BME280;40618;51.166;10.322;2024-02-04T06:58:05;97734.50;;;7.22;96.68
26865;BME280;40618;51.166;10.322;2024-02-04T07:00:30;97733.59;;;7.25;96.78
26865;BME280;40618;51.166;10.322;2024-02-04T07:02:56;97733.59;;;7.25;96.63
26865;BME280;40618;51.166;10.322;2024-02-04T07:05:22;97741.31;;;7.25;96.84
26865;BME280;40618;51.166;10.322;2024-02-04T07:07:48;97735.31;;;7.26;97.20
26865;BME280;40618;51.166;10.322;2024-02-04T07:10:15;97726.69;;;7.27;97.07
26865;BME280;40618;51.166;10.322;2024-02-04T07:12:41;97727.56;;;7.27;96.79
26865;BME280;40618;51.166;10.322;2024-02-04T07:15:07;97726.69;;;7.27;97.01
26865;BME280;40618;51.166;10.322;2024-02-04T07:17:34;97730.97;;;7.28;96.48
26865;BME280;40618;51.166;10.322;2024-02-04T07:20:01;97699.22;;;7.29;97.23
26865;BME280;40618;51.166;10.322;2024-02-04T07:22:27;97692.34;;;7.28;96.71
26865;BME280;40618;51.166;10.322;2024-02-04T07:24:53;97697.50;;;7.28;96.19
26865;BME280;40618;51.166;10.322;2024-02-04T07:27:19;97691.53;;;7.26;96.82
26865;BME280;40618;51.166;10.322;2024-02-04T07:29:44;97700.94;;;7.27;96.27
26865;BME280;40618;51.166;10.322;2024-02-04T07:32:12;97692.38;;;7.26;97.00
26865;BME280;40618;51.166;10.322;2024-02-04T07:34:40;97710.38;;;7.28;96.05
26865;BME280;40618;51.166;10.322;2024-02-04T07:37:05;97706.09;;;7.28;96.94
26865;BME280;40618;51.166;10.322;2024-02-04T07:39:31;97702.66;;;7.28;96.59
26865;BME280;40618;51.166;10.322;2024-02-04T07:41:57;97701.81;;;7.27;96.28
26865;BME280;40618;51.166;10.322;2024-02-04T07:44:28;97706.94;;;7.29;96.25
26865;BME280;40618;51.166;10.322;2024-02-04T07:46:54;97708.66;;;7.30;96.93
26865;BME280;40618;51.166;10.322;2024-02-04T07:49:20;97706.03;;;7.32;96.46
26865;BME280;40618;51.166;10.322;2024-02-04T07:51:45;97687.16;;;7.31;96.71
26865;BME280;40618;51.166;10.322;2024-02-04T07:54:11;97688.00;;;7.32;96.92
26865;BME280;40618;51.166;10.322;2024-02-04T07:56:37;97692.31;;;7.33;96.70
26865;BME280;40618;51.166;10.322;2024-02-04T07:59:02;97690.56;;;7.33;96.76
26865;BME280;40618;51.166;10.322;2024-02-04T08:01:29;97688.00;;;7.33;96.90
26865;BME280;40618;51.166;10.322;2024-02-04T08:03:55;97685.41;;;7.33;96.55
26865;BME280;40618;51.166;10.322;2024-02-04T08:06:21;97680.25;;;7.33;96.60
26865;BME280;40618;51.166;10.322;2024-02-04T08:08:47;97682.84;;;7.33;96.73
26865;BME280;40618;51.166;10.322;2024-02-04T08:11:16;97673.38;;;7.34;97.05
26865;BME280;40618;51.166;10.322;2024-02-04T08:13:43;97681.97;;;7.34;96.80
26865;BME280;40618;51.166;10.322;2024-02-04T08:16:09;97687.97;;;7.35;96.84
26865;BME280;40618;51.166;10.322;2024-02-04T08:18:35;97677.66;;;7.35;97.28
26865;BME280;40618;51.166;10.322;2024-02-04T08:21:01;97681.06;;;7.35;96.93
26865;BME280;40618;51.166;10.322;2024-02-04T08:23:26;97685.38;;;7.36;96.99
26865;BME280;40618;51.166;10.322;2024-02-04T08:25:52;97678.47;;;7.38;96.72
26865;BME280;40618;51.166;10.322;2024-02-04T08:28:17;97677.59;;;7.41;96.88
26865;BME280;40618;51.166;10.322;2024-02-04T08:30:43;97670.69;;;7.41;96.42
26865;BME280;40618;51.166;10.322;2024-02-04T08:33:08;97671.53;;;7.42;96.45
26865;BME280;40618;51.166;10.322;2024-02-04T08:35:34;97669.81;;;7.44;96.59
26865;BME280;40618;51.166;10.322;2024-02-04T08:38:00;97679.25;;;7.45;96.51
26865;BME280;40618;51.166;10.322;2024-02-04T08:40:25;97678.34;;;7.48;97.16
26865;BME280;40618;51.166;10.322;2024-02-04T08:42:51;97685.16;;;7.50;97.06
26865;BME280;40618;51.166;10.322;2024-02-04T08:45:16;97697.19;;;7.51;96.58
26865;BME280;40618;51.166;10.322;2024-02-04T08:47:42;97682.56;;;7.52;96.60
26865;BME280;40618;51.166;10.322;2024-02-04T08:50:08;97691.16;;;7.54;96.99
26865;BME280;40618;51.166;10.322;2024-02-04T08:52:34;97677.38;;;7.56;96.72
26865;BME280;40618;51.166;10.322;2024-02-04T08:54:59;97673.91;;;7.59;96.48
26865;BME280;40618;51.166;10.322;2024-02-04T08:57:25;97668.72;;;7.60;96.42
26865;BME280;40618;51.166;10.322;2024-02-04T08:59:51;97671.28;;;7.62;96.64
26865;BME280;40618;51.166;10.322;2024-02-04T09:02:16;97674.69;;;7.64;97.07
26865;BME280;40618;51.166;10.322;2024-02-04T09:04:43;97662.63;;;7.66;96.38
26865;BME280;40618;51.166;10.322;2024-02-04T09:07:08;97653.16;;;7.67;96.85
26865;BME280;40618;51.166;10.322;2024-02-04T09:09:34;97656.56;;;7.69;96.47
26865;BME280;40618;51.166;10.322;2024-02-04T09:11:59;97669.44;;;7.70;95.72
26865;BME280;40618;51.166;10.322;2024-02-04T09:14:25;97648.78;;;7.72;96.85
26865;BME280;40618;51.166;10.322;2024-02-04T09:16:51;97650.47;;;7.74;95.71
26865;BME280;40618;51.166;10.322;2024-02-04T09:19:16;97656.47;;;7.75;96.27
26865;BME280;40618;51.166;10.322;2024-02-04T09:21:42;97653.00;;;7.76;96.04
26865;BME280;40618;51.166;10.322;2024-02-04T09:24:07;97659.88;;;7.77;95.17
26865;BME280;40618;51.166;10.322;2024-02-04T09:26:34;97665.94;;;7.74;95.95
26865;BME280;40618;51.166;10.322;2024-02-04T09:29:00;97663.34;;;7.74;95.89
26865;BME280;40618;51.166;10.322;2024-02-04T09:31:25;97659.03;;;7.76;96.08
26865;BME280;40618;51.166;10.322;2024-02-04T09:33:51;97658.13;;;7.77;95.44
26865;BME280;40618;51.166;10.322;2024-02-04T09:36:17;97651.28;;;7.78;96.03
26865;BME280;40618;51.166;10.322;2024-02-04T09:38:42;97653.88;;;7.76;95.59
26865;BME280;40618;51.166;10.322;2024-02-04T09:41:08;97670.22;;;7.75;95.38
26865;BME280;40618;51.166;10.322;2024-02-04T09:43:35;97671.09;;;7.73;95.01
26865;BME280;40618;51.166;10.322;2024-02-04T09:46:02;97668.63;;;7.68;95.50
26865;BME280;40618;51.166;10.322;2024-02-04T09:48:33;97664.38;;;7.64;95.54
26865;BME280;40618;51.166;10.322;2024-02-04T09:50:59;97652.41;;;7.60;94.98
26865;BME280;40618;51.166;10.322;2024-02-04T09:53:34;97662.78;;;7.55;95.21
26865;BME280;40618;51.166;10.322;2024-02-04T09:56:04;97658.50;;;7.53;95.38
26865;BME280;40618;51.166;10.322;2024-02-04T09:58:32;97670.56;;;7.52;95.46
26865;BME280;40618;51.166;10.322;2024-02-04T10:00:59;97668.00;;;7.51;96.14
26865;BME280;40618;51.166;10.322;2024-02-04T10:03:26;97670.59;;;7.49;96.02
26865;BME280;40618;51.166;10.322;2024-02-04T10:05:52;97673.19;;;7.49;95.52
26865;BME280;40618;51.166;10.322;2024-02-04T10:08:18;97678.31;;;7.51;95.93
26865;BME280;40618;51.166;10.322;2024-02-04T10:10:44;97655.94;;;7.53;96.26
26865;BME280;40618;51.166;10.322;2024-02-04T10:13:10;97662.75;;;7.57;96.51
26865;BME280;40618;51.166;10.322;2024-02-04T10:15:36;97652.41;;;7.60;96.05
26865;BME280;40618;51.166;10.322;2024-02-04T10:18:05;97665.28;;;7.61;96.05
26865;BME280;40618;51.166;10.322;2024-02-04T10:20:32;97655.78;;;7.63;95.99
26865;BME280;40618;51.166;10.322;2024-02-04T10:22:58;97648.03;;;7.65;96.05
26865;BME280;40618;51.166;10.322;2024-02-04T10:25:24;97648.03;;;7.65;96.27
26865;BME280;40618;51.166;10.322;2024-02-04T10:27:50;97648.00;;;7.67;95.79
26865;BME280;40618;51.166;10.322;2024-02-04T10:30:21;97662.63;;;7.66;95.70
26865;BME280;40618;51.166;10.322;2024-02-04T10:32:50;97656.63;;;7.66;95.72
26865;BME280;40618;51.166;10.322;2024-02-04T10:35:16;97660.06;;;7.65;95.75
26865;BME280;40618;51.166;10.322;2024-02-04T10:37:45;97660.88;;;7.67;96.14
26865;BME280;40618;51.166;10.322;2024-02-04T10:40:11;97646.28;;;7.67;95.86
26865;BME280;40618;51.166;10.322;2024-02-04T10:42:38;97646.28;;;7.67;95.87
26865;BME280;40618;51.166;10.322;2024-02-04T10:45:07;97630.78;;;7.69;95.74
26865;BME280;40618;51.166;10.322;2024-02-04T10:47:37;97634.22;;;7.69;96.20
26865;BME280;40618;51.166;10.322;2024-02-04T10:50:04;97623.88;;;7.71;95.65
26865;BME280;40618;51.166;10.322;2024-02-04T10:52:41;97628.13;;;7.73;95.83
26865;BME280;40618;51.166;10.322;2024-02-04T10:55:11;97622.06;;;7.76;95.97
26865;BME280;40618;51.166;10.322;2024-02-04T10:57:38;97612.56;;;7.79;96.14
26865;BME280;40618;51.166;10.322;2024-02-04T11:00:05;97609.06;;;7.84;96.19
26865;BME280;40618;51.166;10.322;2024-02-04T11:02:38;97604.72;;;7.86;96.58
26865;BME280;40618;51.166;10.322;2024-02-04T11:05:04;97600.44;;;7.86;96.11
26865;BME280;40618;51.166;10.322;2024-02-04T11:07:34;97609.84;;;7.87;96.39
26865;BME280;40618;51.166;10.322;2024-02-04T11:10:01;97609.00;;;7.87;95.96
26865;BME280;40618;51.166;10.322;2024-02-04T11:12:29;97610.72;;;7.88;96.53
26865;BME280;40618;51.166;10.322;2024-02-04T11:15:00;97601.22;;;7.91;95.59
26865;BME280;40618;51.166;10.322;2024-02-04T11:20:57;97596.84;;;7.95;96.46
26865;BME280;40618;51.166;10.322;2024-02-04T11:26:33;97596.78;;;7.98;95.94
26865;BME280;40618;51.166;10.322;2024-02-04T11:29:00;97597.63;;;8.00;95.96
26865;BME280;40618;51.166;10.322;2024-02-04T11:31:28;97594.16;;;8.01;95.79
26865;BME280;40618;51.166;10.322;2024-02-04T11:33:56;97584.66;;;8.03;95.37
26865;BME280;40618;51.166;10.322;2024-02-04T11:36:24;97608.75;;;8.04;95.63
26865;BME280;40618;51.166;10.322;2024-02-04T11:38:50;97591.53;;;8.04;94.87
26865;BME280;40618;51.166;10.322;2024-02-04T11:41:24;97572.59;;;8.05;95.52
26865;BME280;40618;51.166;10.322;2024-02-04T11:43:52;97575.16;;;8.07;95.11
26865;BME280;40618;51.166;10.322;2024-02-04T11:46:19;97582.00;;;8.09;95.14
26865;BME280;40618;51.166;10.322;2024-02-04T11:48:52;97571.66;;;8.11;95.11
26865;BME280;40618;51.166;10.322;2024-02-04T11:51:24;97569.03;;;8.12;95.11
26865;BME280;40618;51.166;10.322;2024-02-04T11:53:50;97570.72;;;8.15;95.59
26865;BME280;40618;51.166;10.322;2024-02-04T11:56:19;97573.28;;;8.15;94.82
26865;BME280;40618;51.166;10.322;2024-02-04T11:58:46;97579.25;;;8.17;95.16
26865;BME280;40618;51.166;10.322;2024-02-04T12:01:12;97578.34;;;8.20;95.54
26865;BME280;40618;51.166;10.322;2024-02-04T12:03:38;97575.69;;;8.23;95.26
26865;BME280;40618;51.166;10.322;2024-02-04T12:06:04;97579.97;;;8.25;94.78
26865;BME280;40618;51.166;10.322;2024-02-04T12:08:32;97579.03;;;8.29;95.17
26865;BME280;40618;51.166;10.322;2024-02-04T12:10:59;97574.69;;;8.32;94.64
26865;BME280;40618;51.166;10.322;2024-02-04T12:13:28;97555.72;;;8.34;94.75
26865;BME280;40618;51.166;10.322;2024-02-04T12:15:53;97581.50;;;8.36;95.00
26865;BME280;40618;51.166;10.322;2024-02-04T12:18:19;97552.28;;;8.34;95.04
26865;BME280;40618;51.166;10.322;2024-02-04T12:20:47;97555.75;;;8.33;94.54
26865;BME280;40618;51.166;10.322;2024-02-04T12:23:17;97568.63;;;8.34;94.49
26865;BME280;40618;51.166;10.322;2024-02-04T12:25:46;97551.44;;;8.33;93.88
26865;BME280;40618;51.166;10.322;2024-02-04T12:28:13;97538.63;;;8.30;94.58
26865;BME280;40618;51.166;10.322;2024-02-04T12:30:39;97524.00;;;8.29;94.12
26865;BME280;40618;51.166;10.322;2024-02-04T12:33:06;97524.84;;;8.29;94.38
26865;BME280;40618;51.166;10.322;2024-02-04T12:35:32;97517.13;;;8.28;94.44
26865;BME280;40618;51.166;10.322;2024-02-04T12:37:59;97521.47;;;8.27;94.56
26865;BME280;40618;51.166;10.322;2024-02-04T12:40:27;97536.97;;;8.26;94.41
26865;BME280;40618;51.166;10.322;2024-02-04T12:43:01;97525.78;;;8.27;95.02
26865;BME280;40618;51.166;10.322;2024-02-04T12:45:28;97529.16;;;8.29;94.60
26865;BME280;40618;51.166;10.322;2024-02-04T12:47:55;97535.16;;;8.31;94.99
26865;BME280;40618;51.166;10.322;2024-02-04T12:50:22;97533.34;;;8.35;94.97
26865;BME280;40618;51.166;10.322;2024-02-04T12:53:01;97539.31;;;8.38;95.06
26865;BME280;40618;51.166;10.322;2024-02-04T12:55:33;97541.00;;;8.39;95.04
26865;BME280;40618;51.166;10.322;2024-02-04T12:58:04;97547.09;;;8.37;94.78
26865;BME280;40618;51.166;10.322;2024-02-04T13:00:32;97555.66;;;8.37;94.84
26865;BME280;40618;51.166;10.322;2024-02-04T13:02:58;97545.41;;;8.34;94.60